ジョン・F・ケネディ国際空港の過去48時間の天気

ジョン・F・ケネディ国際空港 (New York, Kennedy International Airport)

現在時刻: 9/25 16:18 EDT (9/25 20:18 UTC) 以下の時間は現地時間です。

過去48時間のMETAR気象情報
時間 風向 風速(m/s) 視程 気温(℃) 湿度(%) 気圧(hPa) 天気現象
25 15:51 南南西 4 10km以上 22.2 64 1004.5
25 14:51 南南西 7 10km以上 24.4 54 1004.8
25 13:51 7 10km以上 22.8 59 1005.6
25 12:51 6 10km以上 21.1 66 1006.3
25 11:51 7 10km以上 22.2 59 1007.4
25 10:51 南南西 7 10km以上 21.1 61 1008.4
25 09:51 5 10km以上 20 65 1008.8
25 08:51 3 10km以上 18.9 65 1009.2
25 07:51 3 10km以上 17.2 70 1009.7
25 06:51 南南西 5 10km以上 16.7 67 1010.7
25 05:51 西南西 4 10km以上 16.7 67 1011
25 04:51 西南西 4 10km以上 16.7 65 1011.2
25 03:51 西南西 4 10km以上 16.1 67 1011.3
25 02:51 西南西 3 10km以上 16.7 62 1011.7
25 01:51 西南西 5 10km以上 16.7 58 1012.5
25 00:51 西南西 4 10km以上 16.7 56 1012.6
24 23:51 西南西 4 10km以上 16.7 56 1012.9
24 22:51 西 6 10km以上 17.2 54 1013
24 21:51 西南西 6 10km以上 18.3 50 1012.6
24 20:51 西南西 6 10km以上 18.3 52 1012.7
24 19:51 西南西 6 10km以上 18.9 48 1012.5
24 18:51 西南西 5 10km以上 18.9 52 1012.4
24 17:51 南西 5 10km以上 20.6 40 1012.4
24 16:51 西南西 5 10km以上 21.7 34 1013
24 15:51 北西 5 10km以上 21.7 32 1013.4
24 14:51 西北西 5 10km以上 21.7 31 1014
24 13:51 西 7 10km以上 20.6 32 1015
24 12:51 西北西 7 10km以上 19.4 32 1015.6
24 11:51 西北西 5 10km以上 17.8 38 1016.2
24 10:51 北西 6 10km以上 16.7 39 1017
24 09:51 北北西 6 10km以上 15 44 1017.4
24 08:51 西北西 2 10km以上 12.8 52 1017.4
24 07:51 西北西 3 10km以上 12.2 55 1017.3
24 06:51 西 4 10km以上 10 61 1016.7
24 05:51 西 3 10km以上 9.4 63 1016.7
24 04:51 西 4 10km以上 10 61 1016.8
24 03:51 西北西 5 10km以上 10 58 1016.8
24 02:51 北西 5 10km以上 10 58 1016.5
24 01:51 北北西 5 10km以上 10 58 1016.8
24 00:51 北北西 6 10km以上 10.6 54 1016.8
23 23:51 北北西 9 10km以上 10.6 52 1017.1
23 22:51 北西 9 10km以上 11.7 48 1016.9
23 21:51 北西 10 10km以上 12.2 45 1016.5
23 20:51 北西 10 10km以上 13.3 42 1015.4
23 19:51 北西 11 10km以上 13.9 37 1014.5
23 18:51 北西 11 10km以上 15 33 1013.7
23 17:51 北西 10 10km以上 16.7 30 1012.9
23 16:51 北西 13 10km以上 17.8 23 1012.4
KJFK 251951Z 20008KT 10SM FEW035 BKN100 BKN200 22/15 A2966 RMK AO2 SLP045 T02220150 $
KJFK 251851Z 21014KT 10SM FEW035 FEW075 BKN150 BKN250 24/14 A2968 RMK AO2 SLP048 T02440144 $
KJFK 251751Z 19014KT 10SM FEW035 FEW075 BKN140 BKN180 BKN250 23/14 A2970 RMK AO2 RAB11E28 SLP056 P0000 60000 T02280144 10228 20172 56029 $
KJFK 251651Z 19011KT 10SM FEW050 SCT075 SCT130 OVC200 21/14 A2972 RMK AO2 SLP063 T02110144 $
KJFK 251551Z 19014KT 10SM FEW030 SCT100 BKN180 BKN250 22/14 A2975 RMK AO2 SLP074 T02220139 $
KJFK 251451Z 21013KT 10SM FEW030 SCT085 BKN180 BKN250 21/13 A2978 RMK AO2 SLP084 T02110133 56013 $
KJFK 251351Z 18009KT 10SM FEW030 BKN075 BKN090 BKN130 BKN250 20/13 A2979 RMK AO2 SLP088 T02000133 $
KJFK 251251Z 18005KT 10SM FEW075 BKN090 BKN130 BKN250 19/12 A2980 RMK AO2 SLP092 T01890122 $
KJFK 251151Z 19006KT 10SM FEW070 BKN085 BKN250 17/12 A2982 RMK AO2 RAB14E24 SLP097 VCSH E P0000 60000 T01720117 10172 20161 58015 $
KJFK 251051Z 21009KT 10SM FEW075 BKN090 BKN250 17/11 A2985 RMK AO2 SLP107 VCSH SE T01670106 $
KJFK 250951Z 24008KT 10SM OVC075 17/11 A2986 RMK AO2 SLP110 T01670106 $
KJFK 250851Z 25008KT 10SM OVC075 17/10 A2986 RMK AO2 SLP112 T01670100 56013 $
KJFK 250751Z 25007KT 10SM BKN075 OVC100 16/10 A2986 RMK AO2 SLP113 T01610100 $
KJFK 250651Z 24005KT 10SM BKN080 OVC110 17/09 A2988 RMK AO2 SLP117 T01670094 $
KJFK 250551Z 25010KT 10SM BKN100 BKN250 17/08 A2990 RMK AO2 SLP125 T01670083 10194 20161 57005 $
KJFK 250451Z 25008KT 10SM FEW250 17/08 A2990 RMK AO2 SLP126 T01670078 402220094 $
KJFK 250351Z 25007KT 10SM FEW250 17/08 A2991 RMK AO2 SLP129 T01670078 $
KJFK 250251Z 26011KT 10SM FEW250 17/08 A2991 RMK AO2 SLP130 T01720078 53004 $
KJFK 250151Z 24011KT 10SM FEW250 18/08 A2990 RMK AO2 SLP126 T01830078 $
KJFK 250051Z 24011KT 10SM FEW250 18/08 A2991 RMK AO2 SLP127 T01830083 $
KJFK 242351Z 25011KT 10SM FEW250 19/08 A2990 RMK AO2 SLP125 T01890078 10222 20189 55004 $
KJFK 242251Z 24010KT 10SM FEW150 FEW250 19/09 A2990 RMK AO2 SLP124 T01890089 $
KJFK 242151Z 23010KT 10SM FEW150 FEW250 21/07 A2990 RMK AO2 SLP124 T02060067 $
KJFK 242051Z 25009KT 10SM FEW150 FEW250 22/05 A2992 RMK AO2 SLP130 T02170050 56020 $
KJFK 241951Z 31010KT 10SM FEW150 SCT250 22/04 A2993 RMK AO2 SLP134 T02170044 $
KJFK 241851Z 30009KT 10SM SCT150 SCT250 22/04 A2995 RMK AO2 SLP140 T02170039 $
KJFK 241751Z 27013KT 10SM FEW150 SCT250 21/03 A2997 RMK AO2 SLP150 T02060033 10206 20122 56021 $
KJFK 241651Z 30013G18KT 10SM FEW150 SCT250 19/02 A2999 RMK AO2 SLP156 T01940022 $
KJFK 241551Z 30010KT 10SM FEW150 BKN250 18/03 A3001 RMK AO2 SLP162 T01780033 $
KJFK 241451Z 32011KT 10SM FEW150 BKN250 17/03 A3003 RMK AO2 SLP170 T01670028 58003 $
KJFK 241351Z 33011KT 10SM SCT150 BKN250 15/03 A3005 RMK AO2 SLP174 T01500028 $
KJFK 241251Z 29004KT 10SM FEW150 BKN250 13/03 A3005 RMK AO2 SLP174 T01280033 $
KJFK 241151Z 29005KT 10SM FEW150 BKN250 12/03 A3004 RMK AO2 SLP173 T01220033 10122 20094 53005 $
KJFK 241051Z 28007KT 10SM FEW150 SCT250 10/03 A3003 RMK AO2 SLP167 T01000028 $
KJFK 240951Z 28005KT 10SM CLR 09/03 A3003 RMK AO2 SLP167 T00940028 $
KJFK 240851Z 27008KT 10SM CLR 10/03 A3003 RMK AO2 SLP168 T01000028 53000 $
KJFK 240751Z 30009KT 10SM CLR 10/02 A3003 RMK AO2 SLP168 T01000022 $
KJFK 240651Z 31009KT 10SM CLR 10/02 A3002 RMK AO2 SLP165 T01000022 $
KJFK 240551Z 33009KT 10SM CLR 10/02 A3003 RMK AO2 SLP168 T01000022 10139 20100 58001 $
KJFK 240451Z 33012KT 10SM CLR 11/02 A3003 RMK AO2 PK WND 33027/0405 SLP168 T01060017 401940106 $
KJFK 240351Z 33017G25KT 10SM CLR 11/01 A3004 RMK AO2 PK WND 32030/0316 SLP171 T01060011 $
KJFK 240251Z 31018G29KT 10SM CLR 12/01 A3003 RMK AO2 PK WND 30029/0245 SLP169 T01170011 51024 $
KJFK 240151Z 32020G26KT 10SM CLR 12/01 A3002 RMK AO2 PK WND 32030/0131 SLP165 T01220006 $
KJFK 240051Z 32020G26KT 10SM CLR 13/01 A2999 RMK AO2 PK WND 32029/2353 SLP154 T01330006 $
KJFK 232351Z 32022G29KT 10SM CLR 14/M01 A2996 RMK AO2 PK WND 32029/2347 SLP145 T01391006 10194 20139 53021 $
KJFK 232251Z 31022KT 10SM CLR 15/M01 A2994 RMK AO2 PK WND 30030/2210 SLP137 T01501011 $
KJFK 232151Z 31020G32KT 10SM FEW070 17/M01 A2991 RMK AO2 PK WND 30033/2126 SLP129 T01671011
KJFK 232051Z 32025G32KT 10SM FEW075 18/M04 A2990 RMK AO2 PK WND 32032/2044 SLP124 T01781039 53008